Aeroporto :







RITROVATECI SU...

 
LOGIN :

Iscrizione | Disclaimer

   EN    FR    IT 

 









Sommario :    VFR   VFR Marginale   IFR   IFR Intensivo   IFR Molto Intensivo
Visibilità : 
Base nubi : 
>= 8 km
>= 3000ft
5 / 8 km
1000 / 3000 ft
1500m / 5 km
500 / 1000 ft
800 / 1500m
200 / 500 ft
< 800m
< 200 ft
Simboli :   Temporali  Nebbia  Neve Forte  Precipitazioni Forti  Vento > 20 kt






- Altitudine del aeroporto : 110 ft
- Codice IATA : YFB


CYFB - Iqaluit

ULTIMO METAR :
  • 131500Z 34008KT 30SM -SN FEW014 SCT038 BKN072 BKN220 M10/M12 A2980 RMK SC1SC3AC2CI1 CI TR SLP096

METARs OBSOLETI :
  • 131400Z 34011KT 25SM -SN DRSN FEW020 BKN039 BKN071 M09/M12 A2981 RMK SC1SC7AC1 SC TR AC TR SLP098
  • 131300Z 34010KT 25SM -SN FEW010 BKN039 M09/M12 A2982 RMK SF1SC7 SF TR SLP102

TAF TAF CYFB
Valido dal 13 a 12 ore il 14 a 12 ore UTC


131139Z 1312/1412 34008KT P6SM -SN SCT020 BKN040
TEMPO 1312/1315 4SM -SN BKN020 OVC040
BECMG 1313/1315 31015KT
FM131500 31015KT P6SM SCT020 BKN040
TEMPO 1315/1406 P6SM -SN
BECMG 1404/1406 31022KT
FM140600 31022KT 5SM -SN BKN010 RMK NXT FCST BY 131800Z



MetMap, La meteo Aeronautica in un colpo d'occhio ! - Copyright ORBIFLY Dicembre 2007 - Disclaimer

ORBIFLY MET'MAP TEAM :

Programmazione e sviluppo : Alexandra Zaïnal
Concezione e sviluppo : Baudouin d'Aumeries
Co-Programmazione e sviluppo : Marc-Olivier Méhu
Supporto tecnico e logistico : Manuel Goepfert
Aiuto per la traduzione : Arnaldo La Scala

Contatto : metmap@orbifly.com




FONTI E CREDITI :

   NOAA